Snider, Montana
Current Conditions -  °F | °C
As of 3:29 PM on Tuesday 21 Oct 2014 (Local Time) from KMLP Reporting Station
Overcast Overcast  
Wind Chill: 29°   Ceiling: 1200
Heat Index: 35°   Visibility: 10mi
Dew Point: 34°   Wind: 7mph
Humidity: 96%   Direction: NA
Pressure: 29.94"   Gusts: NA
Location:  47.6853°N, 115.247°W
Report Text: KMLP 212129Z AUTO VRB06KT 10SM SCT005 BKN012 OVC017 02/01 A2994 RMK AO2 T00170011
Loading
Personal Weather Stations






























Interactive Weather Map
Tropical Storm Tracking
New forecast layout! Learn more

10-Day Weather Forecast

Advertisements
Track Severe Weather on mobile